createdAt,value
2019-05-23T00:00:27.635Z,4.60
2019-05-23T00:01:27.618Z,4.80
2019-05-23T00:02:27.624Z,5.00
2019-05-23T00:03:27.604Z,5.10
2019-05-23T00:04:27.596Z,5.50
2019-05-23T00:05:27.573Z,5.20
2019-05-23T00:06:27.567Z,4.80
2019-05-23T00:07:27.563Z,4.50
2019-05-23T00:08:27.919Z,4.70
2019-05-23T00:09:27.611Z,5.00
2019-05-23T00:10:27.524Z,5.20
2019-05-23T00:11:27.513Z,4.80
2019-05-23T00:12:27.502Z,4.60
2019-05-23T00:13:27.501Z,5.00
2019-05-23T00:14:27.473Z,5.30
2019-05-23T00:15:27.462Z,5.30
2019-05-23T00:16:27.467Z,4.80
2019-05-23T00:17:27.461Z,5.00
2019-05-23T00:18:27.443Z,5.40
2019-05-23T00:19:27.421Z,5.40
2019-05-23T00:20:27.416Z,5.40
2019-05-23T00:21:27.401Z,5.40
2019-05-23T00:22:27.391Z,5.10
2019-05-23T00:23:27.389Z,5.10
2019-05-23T00:24:27.371Z,5.00
2019-05-23T00:25:27.380Z,5.20
2019-05-23T00:26:27.340Z,5.00
2019-05-23T00:27:27.360Z,5.00
2019-05-23T00:28:27.339Z,5.00
2019-05-23T00:29:27.309Z,4.80
2019-05-23T00:30:27.299Z,5.50
2019-05-23T00:31:27.290Z,5.30
2019-05-23T00:32:27.279Z,5.50
2019-05-23T00:33:27.299Z,5.40
2019-05-23T00:34:27.269Z,5.60
2019-05-23T00:35:27.248Z,5.50
2019-05-23T00:36:27.239Z,5.20
2019-05-23T00:37:27.228Z,5.50
2019-05-23T00:38:27.208Z,5.00
2019-05-23T00:39:27.216Z,5.20
2019-05-23T00:40:27.188Z,5.00
2019-05-23T00:41:27.198Z,5.40
2019-05-23T00:42:27.168Z,6.00
2019-05-23T00:43:27.158Z,5.30
2019-05-23T00:44:27.160Z,5.10
2019-05-23T00:45:27.150Z,4.90
2019-05-23T00:46:27.126Z,5.00
2019-05-23T00:47:27.119Z,5.50
2019-05-23T00:48:27.106Z,5.60
2019-05-23T00:49:27.119Z,5.70
2019-05-23T00:50:27.086Z,5.80
2019-05-23T00:51:27.075Z,5.70
2019-05-23T00:52:27.059Z,5.40
2019-05-23T00:53:27.045Z,5.60
2019-05-23T00:54:27.050Z,5.80
2019-05-23T00:55:27.034Z,5.10
2019-05-23T00:56:27.015Z,5.20
2019-05-23T00:57:27.007Z,5.60
2019-05-23T00:58:26.994Z,5.10
2019-05-23T00:59:27.931Z,5.30
2019-05-23T01:00:26.977Z,5.20
2019-05-23T01:01:27.023Z,5.10
2019-05-23T01:02:26.953Z,4.60
2019-05-23T01:03:26.942Z,5.20
2019-05-23T01:04:26.943Z,5.10
2019-05-23T01:05:26.913Z,4.90
2019-05-23T01:06:26.903Z,5.40
2019-05-23T01:07:26.903Z,4.90
2019-05-23T01:08:26.893Z,5.10
2019-05-23T01:09:26.883Z,4.90
2019-05-23T01:10:26.872Z,4.90
2019-05-23T01:11:26.851Z,4.80
2019-05-23T01:12:26.841Z,5.30
2019-05-23T01:13:26.832Z,4.90
2019-05-23T01:14:26.866Z,5.20
2019-05-23T01:15:26.812Z,5.40
2019-05-23T01:16:26.791Z,5.60
2019-05-23T01:17:26.791Z,5.30
2019-05-23T01:18:26.785Z,5.30
2019-05-23T01:19:26.796Z,5.50
2019-05-23T01:20:26.751Z,5.40
2019-05-23T01:21:26.741Z,5.20
2019-05-23T01:22:26.730Z,5.80
2019-05-23T01:23:26.721Z,5.20
2019-05-23T01:24:26.720Z,5.70
2019-05-23T01:25:26.707Z,5.40
2019-05-23T01:26:26.689Z,5.00
2019-05-23T01:27:26.680Z,5.20
2019-05-23T01:28:26.668Z,5.80
2019-05-23T01:29:36.937Z,5.40
2019-05-23T01:30:27.640Z,5.90
2019-05-23T01:31:26.629Z,5.70
2019-05-23T01:32:26.625Z,5.30
2019-05-23T01:33:26.608Z,5.40
2019-05-23T01:34:26.602Z,5.40
2019-05-23T01:35:26.597Z,6.00
2019-05-23T01:36:26.587Z,5.80
2019-05-23T01:37:26.570Z,5.50
2019-05-23T01:38:26.573Z,5.30
2019-05-23T01:39:26.547Z,5.30
2019-05-23T01:40:26.537Z,5.90
2019-05-23T01:41:26.527Z,5.70
2019-05-23T01:42:26.510Z,5.80
2019-05-23T01:43:26.505Z,5.80
2019-05-23T01:44:26.496Z,5.60
2019-05-23T01:45:26.487Z,5.50
2019-05-23T01:46:26.465Z,6.00
2019-05-23T01:47:26.458Z,5.20
2019-05-23T01:48:26.446Z,5.80
2019-05-23T01:49:26.439Z,5.90
2019-05-23T01:50:26.435Z,5.70
2019-05-23T01:51:26.412Z,5.30
2019-05-23T01:52:26.396Z,6.10
2019-05-23T01:53:26.384Z,5.50
2019-05-23T01:54:26.374Z,5.10
2019-05-23T01:55:26.376Z,5.80
2019-05-23T01:56:26.354Z,5.10
2019-05-23T01:57:26.382Z,5.50
2019-05-23T01:58:26.343Z,5.20
2019-05-23T01:59:26.323Z,5.50
2019-05-23T02:00:26.323Z,5.10
2019-05-23T02:01:26.304Z,5.30
2019-05-23T02:02:26.293Z,5.20
2019-05-23T02:03:26.273Z,5.20
2019-05-23T02:04:26.262Z,5.80
2019-05-23T02:05:26.263Z,5.70
2019-05-23T02:06:26.256Z,5.60
2019-05-23T02:07:26.232Z,5.70
2019-05-23T02:08:26.222Z,5.60
2019-05-23T02:09:26.217Z,5.80
2019-05-23T02:10:26.228Z,6.10
2019-05-23T02:11:26.183Z,5.70
2019-05-23T02:12:26.180Z,5.20
2019-05-23T02:13:26.171Z,6.00
2019-05-23T02:14:26.162Z,5.80
2019-05-23T02:15:26.151Z,5.70
2019-05-23T02:16:26.140Z,5.50
2019-05-23T02:17:26.139Z,5.70
2019-05-23T02:18:26.119Z,5.80
2019-05-23T02:19:26.115Z,5.30
2019-05-23T02:20:26.100Z,5.80
2019-05-23T02:21:26.081Z,5.70
2019-05-23T02:22:26.078Z,5.50
2019-05-23T02:23:26.058Z,6.10
2019-05-23T02:24:26.048Z,5.30
2019-05-23T02:25:26.078Z,5.40
2019-05-23T02:26:26.027Z,6.10
2019-05-23T02:27:26.009Z,5.70
2019-05-23T02:28:26.014Z,5.40
2019-05-23T02:29:26.084Z,5.70
2019-05-23T02:30:35.746Z,6.10
2019-05-23T02:31:26.968Z,5.90
2019-05-23T02:32:25.962Z,5.90
2019-05-23T02:33:25.949Z,5.50
2019-05-23T02:34:25.948Z,5.40
2019-05-23T02:35:25.917Z,5.50
2019-05-23T02:36:25.916Z,5.70
2019-05-23T02:37:25.906Z,5.60
2019-05-23T02:38:25.887Z,5.80
2019-05-23T02:39:25.878Z,5.60
2019-05-23T02:40:25.865Z,5.20
2019-05-23T02:41:25.867Z,5.40
2019-05-23T02:42:25.846Z,5.90
2019-05-23T02:43:25.838Z,5.20
2019-05-23T02:44:25.827Z,5.50
2019-05-23T02:45:25.814Z,5.60
2019-05-23T02:46:25.805Z,5.40
2019-05-23T02:47:25.794Z,5.90
2019-05-23T02:48:25.782Z,5.30
2019-05-23T02:49:25.767Z,5.40
2019-05-23T02:50:25.754Z,6.10
2019-05-23T02:51:25.753Z,5.40
2019-05-23T02:52:25.733Z,5.80
2019-05-23T02:53:25.723Z,5.50
2019-05-23T02:54:25.703Z,5.10
2019-05-23T02:55:25.693Z,6.00
2019-05-23T02:56:25.693Z,5.80
2019-05-23T02:57:25.684Z,5.80
2019-05-23T02:58:25.673Z,5.40
2019-05-23T02:59:25.652Z,6.40
2019-05-23T03:00:25.642Z,5.90
2019-05-23T03:01:25.651Z,5.30
2019-05-23T03:02:25.622Z,5.70
2019-05-23T03:03:25.612Z,5.30
2019-05-23T03:04:25.615Z,5.10
2019-05-23T03:05:25.591Z,5.50
2019-05-23T03:06:25.590Z,5.30
2019-05-23T03:07:25.571Z,5.80
2019-05-23T03:08:25.557Z,5.60
2019-05-23T03:09:25.550Z,5.50
2019-05-23T03:10:25.530Z,5.90
2019-05-23T03:11:25.532Z,5.80
2019-05-23T03:12:25.541Z,5.30
2019-05-23T03:13:25.500Z,5.70
2019-05-23T03:14:25.488Z,5.80
2019-05-23T03:15:25.479Z,5.70
2019-05-23T03:16:25.483Z,6.10
2019-05-23T03:17:25.460Z,5.70
2019-05-23T03:18:25.453Z,5.80
2019-05-23T03:19:25.441Z,6.10
2019-05-23T03:20:25.427Z,6.00
2019-05-23T03:21:25.427Z,5.60
2019-05-23T03:22:25.408Z,6.40
2019-05-23T03:23:25.388Z,5.90
2019-05-23T03:24:25.387Z,5.80
2019-05-23T03:25:25.379Z,6.10
2019-05-23T03:26:25.366Z,5.80
2019-05-23T03:27:25.345Z,6.10
2019-05-23T03:28:25.338Z,5.90
2019-05-23T03:29:25.319Z,5.40
2019-05-23T03:30:25.309Z,6.00
2019-05-23T03:31:30.771Z,6.10
2019-05-23T03:32:26.317Z,5.70
2019-05-23T03:33:25.276Z,5.90
2019-05-23T03:34:25.277Z,6.10
2019-05-23T03:35:25.285Z,6.70
2019-05-23T03:36:25.254Z,6.00
2019-05-23T03:37:25.238Z,6.40
2019-05-23T03:38:25.214Z,6.10
2019-05-23T03:39:25.258Z,6.60
2019-05-23T03:40:25.204Z,6.70
2019-05-23T03:41:25.194Z,6.80
2019-05-23T03:42:25.181Z,6.80
2019-05-23T03:43:25.166Z,6.50
2019-05-23T03:44:25.153Z,7.00
2019-05-23T03:45:25.141Z,6.40
2019-05-23T03:46:25.162Z,6.00
2019-05-23T03:47:25.122Z,6.10
2019-05-23T03:48:25.137Z,6.30
2019-05-23T03:49:25.093Z,6.10
2019-05-23T03:50:25.101Z,5.80
2019-05-23T03:51:25.073Z,5.90
2019-05-23T03:52:25.082Z,6.00
2019-05-23T03:53:25.056Z,6.50
2019-05-23T03:54:25.040Z,6.50
2019-05-23T03:55:25.036Z,7.00
2019-05-23T03:56:25.102Z,6.40
2019-05-23T03:57:25.941Z,6.50
2019-05-23T03:58:25.000Z,7.10
2019-05-23T03:59:25.009Z,6.40
2019-05-23T04:00:24.981Z,6.90
2019-05-23T04:01:24.971Z,6.80
2019-05-23T04:02:24.963Z,7.70
2019-05-23T04:03:24.946Z,7.90
2019-05-23T04:04:24.929Z,7.80
2019-05-23T04:05:24.920Z,7.80
2019-05-23T04:06:24.919Z,8.00
2019-05-23T04:07:24.908Z,7.50
2019-05-23T04:08:24.912Z,7.50
2019-05-23T04:09:24.870Z,7.70
2019-05-23T04:10:24.864Z,7.50
2019-05-23T04:11:24.863Z,7.40
2019-05-23T04:12:24.847Z,7.40
2019-05-23T04:13:24.828Z,7.80
2019-05-23T04:14:24.819Z,7.60
2019-05-23T04:15:24.810Z,8.70
2019-05-23T04:16:24.799Z,7.90
2019-05-23T04:17:24.800Z,8.20
2019-05-23T04:18:24.776Z,7.90
2019-05-23T04:19:24.766Z,8.10
2019-05-23T04:20:24.747Z,6.70
2019-05-23T04:21:24.749Z,7.90
2019-05-23T04:22:24.736Z,7.30
2019-05-23T04:23:24.728Z,7.40
2019-05-23T04:24:24.715Z,7.60
2019-05-23T04:25:24.696Z,7.10
2019-05-23T04:26:24.702Z,7.60
2019-05-23T04:27:24.685Z,7.40
2019-05-23T04:28:24.665Z,7.10
2019-05-23T04:29:24.661Z,7.60
2019-05-23T04:30:24.634Z,7.30
2019-05-23T04:31:24.648Z,7.70
2019-05-23T04:32:24.628Z,7.10
2019-05-23T04:33:24.604Z,7.20
2019-05-23T04:34:24.595Z,7.70
2019-05-23T04:35:24.584Z,7.20
2019-05-23T04:36:24.605Z,7.10
2019-05-23T04:37:24.583Z,7.70
2019-05-23T04:38:24.562Z,8.30
2019-05-23T04:39:24.573Z,8.10
2019-05-23T04:40:24.533Z,7.70
2019-05-23T04:41:24.522Z,6.90
2019-05-23T04:42:24.520Z,7.00
2019-05-23T04:43:24.493Z,7.10
2019-05-23T04:44:24.490Z,7.60
2019-05-23T04:45:24.499Z,7.30
2019-05-23T04:46:24.461Z,9.00
2019-05-23T04:47:24.459Z,8.40
2019-05-23T04:48:24.456Z,10.00
2019-05-23T04:49:24.430Z,11.30
2019-05-23T04:50:24.419Z,11.80
2019-05-23T04:51:24.414Z,12.10
2019-05-23T04:52:24.409Z,12.20
2019-05-23T04:53:24.398Z,11.30
2019-05-23T04:54:24.379Z,11.40
2019-05-23T04:55:24.360Z,10.40
2019-05-23T04:56:24.352Z,9.70
2019-05-23T04:57:24.349Z,8.60
2019-05-23T04:58:24.338Z,9.50
2019-05-23T04:59:24.333Z,9.60
2019-05-23T05:00:24.308Z,9.30
2019-05-23T05:01:24.307Z,9.90
2019-05-23T05:02:26.858Z,10.10
2019-05-23T05:03:24.278Z,9.80
2019-05-23T05:04:24.285Z,10.00
2019-05-23T05:05:24.257Z,10.50
2019-05-23T05:06:24.238Z,9.40
2019-05-23T05:07:24.252Z,9.50
2019-05-23T05:08:24.236Z,10.10
2019-05-23T05:09:24.218Z,9.80
2019-05-23T05:10:24.196Z,9.20
2019-05-23T05:11:24.185Z,9.60
2019-05-23T05:12:24.195Z,9.00
2019-05-23T05:13:24.173Z,9.60
2019-05-23T05:14:24.154Z,8.90
2019-05-23T05:15:24.154Z,8.90
2019-05-23T05:16:24.135Z,7.90
2019-05-23T05:17:24.135Z,8.40
2019-05-23T05:18:24.113Z,8.70
2019-05-23T05:19:24.102Z,8.70
2019-05-23T05:20:24.095Z,8.70
2019-05-23T05:21:24.073Z,8.20
2019-05-23T05:22:24.073Z,8.50
2019-05-23T05:23:24.054Z,8.30
2019-05-23T05:24:24.043Z,8.30
2019-05-23T05:25:24.034Z,8.60
2019-05-23T05:26:24.041Z,8.10
2019-05-23T05:27:24.028Z,7.90
2019-05-23T05:28:24.011Z,8.00
2019-05-23T05:29:23.992Z,8.70
2019-05-23T05:30:23.984Z,8.00
2019-05-23T05:31:23.974Z,9.10
2019-05-23T05:32:23.984Z,9.10
2019-05-23T05:33:23.951Z,9.40
2019-05-23T05:34:23.931Z,9.10
2019-05-23T05:35:23.922Z,8.80
2019-05-23T05:36:23.918Z,8.30
2019-05-23T05:37:23.912Z,8.50
2019-05-23T05:38:23.889Z,9.30
2019-05-23T05:39:23.881Z,8.80
2019-05-23T05:40:23.870Z,9.40
2019-05-23T05:41:23.849Z,9.30
2019-05-23T05:42:23.873Z,9.00
2019-05-23T05:43:23.839Z,8.70
2019-05-23T05:44:23.860Z,9.30
2019-05-23T05:45:23.814Z,9.30
2019-05-23T05:46:23.800Z,9.50
2019-05-23T05:47:23.828Z,9.60
2019-05-23T05:48:23.786Z,9.30
2019-05-23T05:49:23.768Z,10.60
2019-05-23T05:50:23.757Z,10.20
2019-05-23T05:51:23.747Z,9.60
2019-05-23T05:52:23.738Z,9.90
2019-05-23T05:53:23.738Z,10.00
2019-05-23T05:54:23.716Z,9.60
2019-05-23T05:55:23.698Z,9.90
2019-05-23T05:56:23.696Z,10.60
2019-05-23T05:57:23.694Z,10.10
2019-05-23T05:58:23.688Z,9.70
2019-05-23T05:59:23.674Z,10.00
2019-05-23T06:00:23.657Z,10.00
2019-05-23T06:01:33.230Z,10.40
2019-05-23T06:02:24.625Z,10.30
2019-05-23T06:03:23.653Z,10.10
2019-05-23T06:04:23.605Z,9.80
2019-05-23T06:05:23.605Z,10.90
2019-05-23T06:06:23.588Z,10.00
2019-05-23T06:07:23.570Z,10.30
2019-05-23T06:08:23.825Z,10.90
2019-05-23T06:09:23.565Z,11.50
2019-05-23T06:10:23.550Z,11.20
2019-05-23T06:11:23.531Z,11.20
2019-05-23T06:12:23.533Z,10.10
2019-05-23T06:13:23.534Z,11.00
2019-05-23T06:14:23.521Z,11.60
2019-05-23T06:15:23.494Z,11.10
2019-05-23T06:16:23.474Z,11.30
2019-05-23T06:17:23.472Z,10.80
2019-05-23T06:18:23.475Z,11.20
2019-05-23T06:19:23.456Z,11.70
2019-05-23T06:20:23.432Z,11.70
2019-05-23T06:21:23.432Z,11.20
2019-05-23T06:22:23.412Z,13.00
2019-05-23T06:23:23.413Z,11.40
2019-05-23T06:24:41.430Z,12.00
2019-05-23T06:25:24.371Z,11.10
2019-05-23T06:26:23.374Z,11.50
2019-05-23T06:27:23.386Z,10.70
2019-05-23T06:28:23.386Z,10.60
2019-05-23T06:29:23.908Z,11.30
2019-05-23T06:30:23.328Z,10.30
2019-05-23T06:31:23.322Z,11.00
2019-05-23T06:32:23.319Z,10.50
2019-05-23T06:33:24.443Z,10.70
2019-05-23T06:34:23.307Z,10.30
2019-05-23T06:35:23.293Z,11.10
2019-05-23T06:36:23.269Z,11.40
2019-05-23T06:37:23.249Z,10.50
2019-05-23T06:38:23.240Z,11.60
2019-05-23T06:39:23.256Z,11.60
2019-05-23T06:40:23.219Z,11.70
2019-05-23T06:41:23.219Z,11.50
2019-05-23T06:42:23.541Z,12.50
2019-05-23T06:43:23.190Z,11.90
2019-05-23T06:44:23.202Z,11.60
2019-05-23T06:45:23.176Z,11.10
2019-05-23T06:46:23.158Z,11.90
2019-05-23T06:47:23.147Z,13.00
2019-05-23T06:48:23.142Z,12.60
2019-05-23T06:49:23.137Z,12.80
2019-05-23T06:50:23.117Z,12.00
2019-05-23T06:51:23.110Z,12.10
2019-05-23T06:52:23.097Z,13.20
2019-05-23T06:53:23.077Z,13.00
2019-05-23T06:54:23.085Z,12.50
2019-05-23T06:55:23.064Z,12.90
2019-05-23T06:56:23.047Z,13.00
2019-05-23T06:57:23.048Z,12.40
2019-05-23T06:58:23.531Z,12.60
2019-05-23T06:59:23.043Z,12.40
2019-05-23T07:00:23.015Z,12.90
2019-05-23T07:01:22.996Z,12.60
2019-05-23T07:02:22.996Z,12.60
2019-05-23T07:03:38.492Z,13.80
2019-05-23T07:04:23.983Z,13.80
2019-05-23T07:05:22.959Z,13.70
2019-05-23T07:06:22.955Z,13.90
2019-05-23T07:07:22.946Z,14.10
2019-05-23T07:08:25.251Z,13.80
2019-05-23T07:09:22.935Z,13.80
2019-05-23T07:10:22.954Z,13.30
2019-05-23T07:11:22.904Z,13.20
2019-05-23T07:12:22.893Z,14.00
2019-05-23T07:13:22.872Z,13.20
2019-05-23T07:14:22.883Z,13.30
2019-05-23T07:15:22.869Z,12.70
2019-05-23T07:16:22.855Z,13.20
2019-05-23T07:17:22.840Z,13.20
2019-05-23T07:18:22.845Z,14.30
2019-05-23T07:19:22.831Z,13.30
2019-05-23T07:20:22.814Z,13.10
2019-05-23T07:21:22.802Z,13.60
2019-05-23T07:22:22.792Z,14.40
2019-05-23T07:23:22.791Z,14.80
2019-05-23T07:24:22.812Z,14.40
2019-05-23T07:25:22.771Z,13.90
2019-05-23T07:26:22.760Z,14.10
2019-05-23T07:27:22.744Z,14.40
2019-05-23T07:28:22.730Z,13.60
2019-05-23T07:29:22.733Z,13.60
2019-05-23T07:30:22.918Z,14.10
2019-05-23T07:31:22.708Z,13.60
2019-05-23T07:32:22.708Z,12.70
2019-05-23T07:33:22.688Z,13.30
2019-05-23T07:34:22.678Z,13.20
2019-05-23T07:35:22.680Z,13.70
2019-05-23T07:36:22.658Z,13.20
2019-05-23T07:37:22.639Z,13.40
2019-05-23T07:38:22.629Z,12.60
2019-05-23T07:39:22.628Z,13.10
2019-05-23T07:40:22.645Z,13.20
2019-05-23T07:41:22.610Z,12.30
2019-05-23T07:42:22.600Z,12.60
2019-05-23T07:43:22.582Z,13.00
2019-05-23T07:44:22.577Z,13.40
2019-05-23T07:45:22.578Z,12.30
2019-05-23T07:46:22.569Z,11.60
2019-05-23T07:47:22.548Z,11.80
2019-05-23T07:48:22.538Z,12.00
2019-05-23T07:49:22.526Z,12.00
2019-05-23T07:50:22.537Z,11.20
2019-05-23T07:51:22.517Z,11.50
2019-05-23T07:52:22.502Z,11.50
2019-05-23T07:53:22.496Z,11.30
2019-05-23T07:54:22.474Z,11.20
2019-05-23T07:55:22.475Z,10.80
2019-05-23T07:56:22.476Z,11.00
2019-05-23T07:57:22.447Z,11.30
2019-05-23T07:58:22.456Z,10.30
2019-05-23T07:59:22.426Z,10.50
2019-05-23T08:00:22.436Z,10.90
2019-05-23T08:01:22.411Z,10.30
2019-05-23T08:02:25.450Z,10.40
2019-05-23T08:03:22.385Z,9.90
2019-05-23T08:04:22.857Z,10.10
2019-05-23T08:05:22.376Z,10.30
2019-05-23T08:06:22.357Z,10.20
2019-05-23T08:07:22.363Z,10.40
2019-05-23T08:08:22.333Z,10.30
2019-05-23T08:09:22.329Z,9.90
2019-05-23T08:10:33.149Z,9.90
2019-05-23T08:11:23.294Z,9.40
2019-05-23T08:12:22.293Z,9.60
2019-05-23T08:13:22.287Z,9.60
2019-05-23T08:14:22.263Z,9.70
2019-05-23T08:15:22.254Z,9.80
2019-05-23T08:16:22.254Z,10.00
2019-05-23T08:17:22.233Z,9.80
2019-05-23T08:18:22.230Z,9.40
2019-05-23T08:19:22.204Z,8.90
2019-05-23T08:20:22.194Z,9.20
2019-05-23T08:21:22.204Z,9.40
2019-05-23T08:22:22.176Z,9.20
2019-05-23T08:23:22.168Z,8.80
2019-05-23T08:24:22.154Z,9.20
2019-05-23T08:25:22.153Z,9.50
2019-05-23T08:26:22.142Z,9.20
2019-05-23T08:27:22.114Z,8.50
2019-05-23T08:28:22.106Z,8.40
2019-05-23T08:29:26.071Z,8.10
2019-05-23T08:30:22.081Z,8.40
2019-05-23T08:31:22.145Z,9.30
2019-05-23T08:32:22.060Z,8.70
2019-05-23T08:33:22.058Z,7.70
2019-05-23T08:34:40.027Z,7.80
2019-05-23T08:35:23.026Z,7.10
2019-05-23T08:36:22.025Z,6.90
2019-05-23T08:37:22.004Z,7.40
2019-05-23T08:38:22.010Z,7.00
2019-05-23T08:39:21.974Z,6.10
2019-05-23T08:40:22.005Z,6.30
2019-05-23T08:41:22.015Z,5.70
2019-05-23T08:42:21.950Z,6.20
2019-05-23T08:43:21.932Z,6.90
2019-05-23T08:44:21.920Z,7.50
2019-05-23T08:45:22.000Z,7.30
2019-05-23T08:46:21.910Z,7.20
2019-05-23T08:47:21.881Z,7.70
2019-05-23T08:48:21.870Z,7.50
2019-05-23T08:49:21.859Z,7.30
2019-05-23T08:50:21.859Z,7.80
2019-05-23T08:51:21.853Z,7.20
2019-05-23T08:52:21.830Z,8.60
2019-05-23T08:53:21.809Z,8.50
2019-05-23T08:54:21.809Z,8.00
2019-05-23T08:55:21.802Z,8.50
2019-05-23T08:56:21.799Z,8.20
2019-05-23T08:57:21.770Z,7.60
2019-05-23T08:58:21.759Z,6.40
2019-05-23T08:59:21.750Z,6.60
2019-05-23T09:00:21.748Z,6.60
2019-05-23T09:01:21.729Z,7.00
2019-05-23T09:02:21.709Z,7.10
2019-05-23T09:03:21.716Z,7.50
2019-05-23T09:04:21.695Z,6.60
2019-05-23T09:05:21.680Z,6.10
2019-05-23T09:06:21.680Z,6.90
2019-05-23T09:07:21.659Z,6.50
2019-05-23T09:08:21.648Z,6.30
2019-05-23T09:09:29.821Z,7.20
2019-05-23T09:10:22.617Z,7.10
2019-05-23T09:11:21.618Z,7.20
2019-05-23T09:12:21.599Z,7.10
2019-05-23T09:13:21.587Z,7.10
2019-05-23T09:14:21.572Z,7.30
2019-05-23T09:15:21.604Z,7.60
2019-05-23T09:16:21.578Z,7.40
2019-05-23T09:17:21.544Z,7.40
2019-05-23T09:18:21.537Z,6.50
2019-05-23T09:19:21.508Z,6.70
2019-05-23T09:20:21.497Z,6.30
2019-05-23T09:21:21.487Z,7.00
2019-05-23T09:22:21.500Z,7.50
2019-05-23T09:23:21.478Z,7.50
2019-05-23T09:24:21.457Z,6.60
2019-05-23T09:25:21.449Z,6.20
2019-05-23T09:26:21.446Z,7.20
2019-05-23T09:27:21.436Z,6.90
2019-05-23T09:28:21.406Z,7.50
2019-05-23T09:29:21.481Z,8.10
2019-05-23T09:30:21.416Z,8.00
2019-05-23T09:31:21.408Z,7.80
2019-05-23T09:32:21.375Z,8.00
2019-05-23T09:33:21.385Z,8.50
2019-05-23T09:34:21.346Z,7.90
2019-05-23T09:35:22.412Z,7.80
2019-05-23T09:36:21.346Z,7.20
2019-05-23T09:37:21.359Z,7.90
2019-05-23T09:38:21.314Z,8.90
2019-05-23T09:39:21.345Z,9.10
2019-05-23T09:40:21.336Z,8.20
2019-05-23T09:41:21.268Z,8.60
2019-05-23T09:42:21.267Z,8.90
2019-05-23T09:43:21.234Z,8.60
2019-05-23T09:44:21.227Z,8.00
2019-05-23T09:45:21.214Z,8.40
2019-05-23T09:46:21.203Z,8.30
2019-05-23T09:47:21.203Z,8.00
2019-05-23T09:48:21.175Z,7.70
2019-05-23T09:49:21.166Z,8.00
2019-05-23T09:50:21.155Z,7.50
2019-05-23T09:51:21.143Z,7.70
2019-05-23T09:52:21.142Z,7.20
2019-05-23T09:53:21.115Z,7.60
2019-05-23T09:54:21.095Z,7.40
2019-05-23T09:55:21.084Z,7.70
2019-05-23T09:56:21.083Z,7.20
2019-05-23T09:57:21.074Z,7.00
2019-05-23T09:58:21.056Z,6.70
2019-05-23T09:59:21.036Z,6.70
2019-05-23T10:00:21.027Z,6.30
2019-05-23T10:01:21.072Z,7.20
2019-05-23T10:02:21.013Z,7.00
2019-05-23T10:03:21.003Z,6.20
2019-05-23T10:04:20.983Z,6.60
2019-05-23T10:05:40.257Z,6.60
2019-05-23T10:06:21.961Z,6.50
2019-05-23T10:07:20.983Z,6.60
2019-05-23T10:08:20.932Z,6.20
2019-05-23T10:09:20.914Z,6.90
2019-05-23T10:10:20.930Z,6.30
2019-05-23T10:11:20.893Z,6.70
2019-05-23T10:12:22.567Z,6.50
2019-05-23T10:13:37.800Z,6.60
2019-05-23T10:14:21.853Z,6.90
2019-05-23T10:15:20.841Z,6.70
2019-05-23T10:16:20.835Z,7.30
2019-05-23T10:17:20.857Z,7.00
2019-05-23T10:18:20.810Z,7.20
2019-05-23T10:19:20.791Z,6.90
2019-05-23T10:20:20.781Z,7.40
2019-05-23T10:21:20.772Z,7.30
2019-05-23T10:22:20.753Z,7.60
2019-05-23T10:23:20.752Z,7.20
2019-05-23T10:24:20.734Z,7.30
2019-05-23T10:25:20.722Z,7.60
2019-05-23T10:26:20.702Z,7.20
2019-05-23T10:27:20.691Z,7.70
2019-05-23T10:28:20.702Z,7.50
2019-05-23T10:29:20.671Z,7.10
2019-05-23T10:30:20.661Z,6.40
2019-05-23T10:31:20.653Z,6.50
2019-05-23T10:32:20.631Z,6.30
2019-05-23T10:33:20.631Z,6.80
2019-05-23T10:34:20.616Z,7.50
2019-05-23T10:35:20.619Z,7.40
2019-05-23T10:36:20.580Z,7.30
2019-05-23T10:37:20.569Z,7.30
2019-05-23T10:38:20.568Z,7.30
2019-05-23T10:39:20.547Z,6.80
2019-05-23T10:40:20.532Z,7.20
2019-05-23T10:41:20.543Z,7.50
2019-05-23T10:42:20.523Z,7.50
2019-05-23T10:43:20.509Z,7.00
2019-05-23T10:44:20.479Z,7.00
2019-05-23T10:45:20.467Z,7.40
2019-05-23T10:46:20.468Z,7.40
2019-05-23T10:47:20.449Z,7.20
2019-05-23T10:48:20.450Z,7.30
2019-05-23T10:49:20.419Z,7.30
2019-05-23T10:50:20.426Z,7.00
2019-05-23T10:51:20.399Z,7.20
2019-05-23T10:52:20.389Z,7.10
2019-05-23T10:53:20.399Z,6.70
2019-05-23T10:54:20.383Z,7.10
2019-05-23T10:55:20.419Z,7.10
2019-05-23T10:56:21.128Z,8.20
2019-05-23T10:57:20.352Z,7.70
2019-05-23T10:58:20.343Z,8.00
2019-05-23T10:59:20.380Z,8.30
2019-05-23T11:00:20.299Z,8.10
2019-05-23T11:01:20.299Z,8.50
2019-05-23T11:02:20.298Z,8.20
2019-05-23T11:03:20.270Z,7.70
2019-05-23T11:04:20.270Z,7.60
2019-05-23T11:05:20.228Z,8.60
2019-05-23T11:06:20.218Z,8.20
2019-05-23T11:07:20.219Z,8.40
2019-05-23T11:08:20.219Z,7.60
2019-05-23T11:09:36.262Z,7.90
2019-05-23T11:10:21.185Z,7.20
2019-05-23T11:11:20.192Z,7.60
2019-05-23T11:12:20.169Z,7.90
2019-05-23T11:13:20.148Z,8.80
2019-05-23T11:14:20.163Z,9.00
2019-05-23T11:15:20.119Z,9.20
2019-05-23T11:16:20.168Z,8.90
2019-05-23T11:17:20.098Z,9.30
2019-05-23T11:18:20.130Z,9.20
2019-05-23T11:19:20.118Z,8.40
2019-05-23T11:20:20.050Z,8.70
2019-05-23T11:21:20.028Z,8.10
2019-05-23T11:22:20.021Z,9.00
2019-05-23T11:23:20.069Z,8.00
2019-05-23T11:24:20.024Z,7.90
2019-05-23T11:25:19.991Z,8.00
2019-05-23T11:26:19.979Z,7.80
2019-05-23T11:27:19.957Z,7.40
2019-05-23T11:28:19.968Z,7.50
2019-05-23T11:29:19.957Z,7.00
2019-05-23T11:30:19.929Z,7.50
2019-05-23T11:31:19.919Z,7.30
2019-05-23T11:32:20.499Z,7.00
2019-05-23T11:33:19.887Z,6.90
2019-05-23T11:34:19.911Z,6.60
2019-05-23T11:35:19.876Z,6.40
2019-05-23T11:36:34.593Z,6.50
2019-05-23T11:37:20.857Z,6.90
2019-05-23T11:38:19.835Z,7.30
2019-05-23T11:39:19.838Z,7.10
2019-05-23T11:40:19.808Z,7.40
2019-05-23T11:41:19.799Z,7.20
2019-05-23T11:42:19.786Z,6.70
2019-05-23T11:43:19.775Z,7.10
2019-05-23T11:44:19.766Z,6.80
2019-05-23T11:45:19.753Z,7.00
2019-05-23T11:46:19.746Z,7.10
2019-05-23T11:47:19.725Z,7.00
2019-05-23T11:48:19.706Z,7.30
2019-05-23T11:49:19.706Z,7.30
2019-05-23T11:50:19.686Z,7.60
2019-05-23T11:51:19.677Z,7.00
2019-05-23T11:52:19.665Z,6.70
2019-05-23T11:53:19.658Z,7.10
2019-05-23T11:54:19.669Z,7.60
2019-05-23T11:55:19.635Z,6.90
2019-05-23T11:56:19.625Z,7.00
2019-05-23T11:57:19.615Z,6.90
2019-05-23T11:58:19.635Z,7.10
2019-05-23T11:59:19.595Z,6.70
2019-05-23T12:00:19.624Z,6.90
2019-05-23T12:01:21.254Z,7.00
2019-05-23T12:02:19.554Z,6.60
2019-05-23T12:03:19.536Z,6.70
2019-05-23T12:04:19.545Z,6.50
2019-05-23T12:05:19.514Z,6.60
2019-05-23T12:06:19.506Z,6.00
2019-05-23T12:07:19.505Z,6.50
2019-05-23T12:08:19.475Z,6.70
2019-05-23T12:09:19.474Z,6.20
2019-05-23T12:10:19.454Z,6.70
2019-05-23T12:11:19.444Z,6.40
2019-05-23T12:12:19.433Z,6.40
2019-05-23T12:13:19.426Z,6.40
2019-05-23T12:14:19.423Z,6.40
2019-05-23T12:15:19.394Z,6.70
2019-05-23T12:16:19.392Z,6.70
2019-05-23T12:17:19.375Z,6.70
2019-05-23T12:18:19.364Z,6.20
2019-05-23T12:19:19.413Z,6.00
2019-05-23T12:20:19.344Z,6.30
2019-05-23T12:21:19.344Z,5.50
2019-05-23T12:22:19.333Z,5.90
2019-05-23T12:23:19.303Z,5.90
2019-05-23T12:24:19.329Z,6.40
2019-05-23T12:25:22.768Z,6.30
2019-05-23T12:26:19.325Z,6.20
2019-05-23T12:27:19.275Z,6.40
2019-05-23T12:28:19.266Z,6.40
2019-05-23T12:29:19.244Z,7.10
2019-05-23T12:30:19.233Z,7.10
2019-05-23T12:31:19.230Z,6.70
2019-05-23T12:32:19.213Z,6.40
2019-05-23T12:33:19.210Z,6.10
2019-05-23T12:34:19.193Z,6.20
2019-05-23T12:35:19.185Z,5.70
2019-05-23T12:36:19.173Z,5.60
2019-05-23T12:37:20.617Z,5.50
2019-05-23T12:38:19.153Z,5.10
2019-05-23T12:39:19.133Z,5.50
2019-05-23T12:40:19.145Z,4.70
2019-05-23T12:41:19.113Z,5.10
2019-05-23T12:42:19.103Z,5.10
2019-05-23T12:43:19.122Z,5.10
2019-05-23T12:44:19.213Z,4.90
2019-05-23T12:45:19.100Z,5.40
2019-05-23T12:46:19.073Z,5.10
2019-05-23T12:47:19.093Z,5.50
2019-05-23T12:48:19.023Z,5.20
2019-05-23T12:49:19.017Z,5.20
2019-05-23T12:50:19.016Z,5.50
2019-05-23T12:51:18.992Z,5.90
2019-05-23T12:52:18.983Z,5.70
2019-05-23T12:53:18.973Z,5.00
2019-05-23T12:54:18.967Z,4.70
2019-05-23T12:55:18.962Z,5.90
2019-05-23T12:56:18.933Z,5.90
2019-05-23T12:57:18.924Z,5.50
2019-05-23T12:58:18.931Z,5.50
2019-05-23T12:59:18.912Z,5.50
2019-05-23T13:00:18.908Z,4.90
2019-05-23T13:01:18.886Z,4.70
2019-05-23T13:02:18.871Z,5.40
2019-05-23T13:03:18.873Z,5.20
2019-05-23T13:04:18.859Z,5.10
2019-05-23T13:05:18.863Z,5.30
2019-05-23T13:06:18.832Z,5.00
2019-05-23T13:07:34.451Z,4.60
2019-05-23T13:08:19.822Z,5.50
2019-05-23T13:09:18.822Z,5.30
2019-05-23T13:10:23.802Z,4.90
2019-05-23T13:11:19.794Z,4.90
2019-05-23T13:12:18.762Z,5.10
2019-05-23T13:13:18.751Z,5.00